Terminal Aerodrome Forecast
Issued by NWS Charleston, WV

Current Version | Previous Version | Graphics & Text | Print | Product List | Glossary On
Versions: 1 2 3 4 5 6 7 8 9 10 11 12 13 14 15 16 17 18 19 20 21
000
FTUS41 KRLX 201726
TAFPKB
TAF
KPKB 201726Z 2018/2118 31004KT P6SM SCT150
     FM211000 01002KT P6SM VCSH OVC030
     FM211500 34005KT P6SM BKN035=

USA.gov is the U.S. government's official web portal to all federal, state and local government web resources and services.